sensor_id;sensor_type;location;lat;lon;timestamp;pressure;altitude;pressure_sealevel;temperature;humidity
65175;BME280;51761;42.126;24.752;2022-12-07T00:01:05;99863.50;;;6.98;86.88
65175;BME280;51761;42.126;24.752;2022-12-07T00:03:32;99843.22;;;6.87;86.62
65175;BME280;51761;42.126;24.752;2022-12-07T00:05:58;99864.66;;;6.94;87.19
65175;BME280;51761;42.126;24.752;2022-12-07T00:08:23;99855.94;;;6.92;86.48
65175;BME280;51761;42.126;24.752;2022-12-07T00:10:49;99837.63;;;6.70;86.60
65175;BME280;51761;42.126;24.752;2022-12-07T00:13:14;99869.44;;;6.90;86.08
65175;BME280;51761;42.126;24.752;2022-12-07T00:15:40;99833.25;;;6.62;86.70
65175;BME280;51761;42.126;24.752;2022-12-07T00:18:05;99845.19;;;6.69;86.87
65175;BME280;51761;42.126;24.752;2022-12-07T00:20:31;99844.78;;;6.71;86.76
65175;BME280;51761;42.126;24.752;2022-12-07T00:22:56;99869.03;;;6.88;86.34
65175;BME280;51761;42.126;24.752;2022-12-07T00:25:22;99850.38;;;6.88;85.62
65175;BME280;51761;42.126;24.752;2022-12-07T00:27:48;99839.28;;;6.88;85.18
65175;BME280;51761;42.126;24.752;2022-12-07T00:30:13;99862.28;;;6.92;85.46
65175;BME280;51761;42.126;24.752;2022-12-07T00:32:39;99867.03;;;6.92;85.65
65175;BME280;51761;42.126;24.752;2022-12-07T00:35:05;99853.13;;;6.78;85.49
65175;BME280;51761;42.126;24.752;2022-12-07T00:37:30;99872.19;;;6.86;85.76
65175;BME280;51761;42.126;24.752;2022-12-07T00:39:55;99856.69;;;6.78;86.15
65175;BME280;51761;42.126;24.752;2022-12-07T00:42:21;99874.16;;;6.82;86.09
65175;BME280;51761;42.126;24.752;2022-12-07T00:44:46;99871.00;;;6.87;85.80
65175;BME280;51761;42.126;24.752;2022-12-07T00:47:12;99859.91;;;6.91;85.72
65175;BME280;51761;42.126;24.752;2022-12-07T00:49:37;99852.78;;;6.90;85.52
65175;BME280;51761;42.126;24.752;2022-12-07T00:52:03;99849.94;;;6.76;84.61
65175;BME280;51761;42.126;24.752;2022-12-07T00:54:28;99860.63;;;6.74;84.58
65175;BME280;51761;42.126;24.752;2022-12-07T00:56:54;99848.31;;;6.64;84.72
65175;BME280;51761;42.126;24.752;2022-12-07T00:59:19;99868.16;;;6.70;84.58
65175;BME280;51761;42.126;24.752;2022-12-07T01:01:45;99864.19;;;6.64;85.05
65175;BME280;51761;42.126;24.752;2022-12-07T01:04:10;99858.56;;;6.50;85.99
65175;BME280;51761;42.126;24.752;2022-12-07T01:06:36;99854.97;;;6.46;86.03
65175;BME280;51761;42.126;24.752;2022-12-07T01:09:02;99830.03;;;6.42;86.13
65175;BME280;51761;42.126;24.752;2022-12-07T01:11:29;99852.25;;;6.53;86.10
65175;BME280;51761;42.126;24.752;2022-12-07T01:13:57;99850.25;;;6.50;86.21
65175;BME280;51761;42.126;24.752;2022-12-07T01:16:25;99843.91;;;6.49;86.02
65175;BME280;51761;42.126;24.752;2022-12-07T01:18:52;99773.94;;;5.99;86.34
65175;BME280;51761;42.126;24.752;2022-12-07T01:21:23;99838.34;;;6.46;86.06
65175;BME280;51761;42.126;24.752;2022-12-07T01:23:49;99840.69;;;6.37;86.33
65175;BME280;51761;42.126;24.752;2022-12-07T01:26:17;99819.28;;;6.34;86.16
65175;BME280;51761;42.126;24.752;2022-12-07T01:28:44;99846.28;;;6.51;85.94
65175;BME280;51761;42.126;24.752;2022-12-07T01:31:12;99825.28;;;6.50;85.37
65175;BME280;51761;42.126;24.752;2022-12-07T01:33:41;99832.44;;;6.61;85.04
65175;BME280;51761;42.126;24.752;2022-12-07T01:38:47;99822.50;;;6.46;85.82
65175;BME280;51761;42.126;24.752;2022-12-07T01:41:13;99803.03;;;6.36;85.99
65175;BME280;51761;42.126;24.752;2022-12-07T01:44:31;99819.72;;;6.39;86.50
65175;BME280;51761;42.126;24.752;2022-12-07T01:46:54;99818.53;;;6.40;86.44
65175;BME280;51761;42.126;24.752;2022-12-07T01:51:58;99813.78;;;6.44;85.98
65175;BME280;51761;42.126;24.752;2022-12-07T01:54:26;99811.41;;;6.46;86.09
65175;BME280;51761;42.126;24.752;2022-12-07T01:56:53;99804.25;;;6.49;85.75
65175;BME280;51761;42.126;24.752;2022-12-07T01:59:23;99801.44;;;6.31;86.10
65175;BME280;51761;42.126;24.752;2022-12-07T02:01:52;99805.00;;;6.32;86.38
65175;BME280;51761;42.126;24.752;2022-12-07T02:04:18;99821.66;;;6.32;86.52
65175;BME280;51761;42.126;24.752;2022-12-07T02:06:44;99799.00;;;6.20;86.29
65175;BME280;51761;42.126;24.752;2022-12-07T02:09:11;99812.91;;;6.26;86.54
65175;BME280;51761;42.126;24.752;2022-12-07T02:11:37;99809.38;;;6.36;86.30
65175;BME280;51761;42.126;24.752;2022-12-07T02:14:03;99809.78;;;6.38;86.40
65175;BME280;51761;42.126;24.752;2022-12-07T02:22:18;99807.31;;;6.13;87.63
65175;BME280;51761;42.126;24.752;2022-12-07T02:24:57;99800.91;;;6.05;87.85
65175;BME280;51761;42.126;24.752;2022-12-07T02:30:28;99796.56;;;6.08;87.22
65175;BME280;51761;42.126;24.752;2022-12-07T02:35:40;99781.59;;;6.22;86.66
65175;BME280;51761;42.126;24.752;2022-12-07T02:38:20;99776.38;;;6.07;86.75
65175;BME280;51761;42.126;24.752;2022-12-07T02:41:20;99786.66;;;6.03;87.59
65175;BME280;51761;42.126;24.752;2022-12-07T02:43:51;99784.28;;;6.09;87.11
65175;BME280;51761;42.126;24.752;2022-12-07T02:46:25;99756.88;;;5.90;87.15
65175;BME280;51761;42.126;24.752;2022-12-07T02:48:53;99781.03;;;5.89;87.90
65175;BME280;51761;42.126;24.752;2022-12-07T02:51:21;99789.41;;;5.96;88.05
65175;BME280;51761;42.126;24.752;2022-12-07T02:53:47;99763.59;;;5.82;88.17
65175;BME280;51761;42.126;24.752;2022-12-07T02:56:33;99780.34;;;6.06;87.78
65175;BME280;51761;42.126;24.752;2022-12-07T03:02:17;99768.81;;;6.01;87.40
65175;BME280;51761;42.126;24.752;2022-12-07T03:10:08;99770.41;;;6.09;87.01
65175;BME280;51761;42.126;24.752;2022-12-07T03:15:23;99766.06;;;6.08;86.93
65175;BME280;51761;42.126;24.752;2022-12-07T03:17:52;99770.81;;;6.00;87.71
65175;BME280;51761;42.126;24.752;2022-12-07T03:20:21;99757.34;;;6.02;87.88
65175;BME280;51761;42.126;24.752;2022-12-07T03:22:49;99747.81;;;6.00;88.82
65175;BME280;51761;42.126;24.752;2022-12-07T03:25:17;99781.88;;;6.00;88.83
65175;BME280;51761;42.126;24.752;2022-12-07T03:27:55;99784.66;;;6.00;89.37
65175;BME280;51761;42.126;24.752;2022-12-07T03:30:51;99759.31;;;6.02;88.16
65175;BME280;51761;42.126;24.752;2022-12-07T03:33:22;99754.22;;;6.11;87.72
65175;BME280;51761;42.126;24.752;2022-12-07T03:36:11;99777.59;;;6.20;87.94
65175;BME280;51761;42.126;24.752;2022-12-07T03:38:47;99763.66;;;5.99;88.42
65175;BME280;51761;42.126;24.752;2022-12-07T03:41:19;99783.97;;;6.21;88.08
65175;BME280;51761;42.126;24.752;2022-12-07T03:43:49;99783.56;;;6.19;88.76
65175;BME280;51761;42.126;24.752;2022-12-07T03:51:46;99782.81;;;6.32;88.23
65175;BME280;51761;42.126;24.752;2022-12-07T03:54:20;99777.25;;;6.35;88.82
65175;BME280;51761;42.126;24.752;2022-12-07T03:56:48;99760.66;;;6.39;88.25
65175;BME280;51761;42.126;24.752;2022-12-07T03:59:15;99755.06;;;6.25;88.47
65175;BME280;51761;42.126;24.752;2022-12-07T04:01:44;99757.06;;;6.31;88.16
65175;BME280;51761;42.126;24.752;2022-12-07T04:04:10;99742.38;;;6.21;87.59
65175;BME280;51761;42.126;24.752;2022-12-07T04:06:35;99740.38;;;6.18;87.77
65175;BME280;51761;42.126;24.752;2022-12-07T04:09:01;99738.75;;;6.13;87.28
65175;BME280;51761;42.126;24.752;2022-12-07T04:11:26;99766.91;;;6.19;87.78
65175;BME280;51761;42.126;24.752;2022-12-07T04:13:52;99751.44;;;6.11;87.56
65175;BME280;51761;42.126;24.752;2022-12-07T04:16:36;99750.16;;;5.91;87.63
65175;BME280;51761;42.126;24.752;2022-12-07T04:19:01;99760.91;;;6.10;87.58
65175;BME280;51761;42.126;24.752;2022-12-07T04:21:26;99756.59;;;6.12;87.40
65175;BME280;51761;42.126;24.752;2022-12-07T04:23:52;99749.34;;;5.87;88.22
65175;BME280;51761;42.126;24.752;2022-12-07T04:26:17;99733.09;;;5.82;88.01
65175;BME280;51761;42.126;24.752;2022-12-07T04:28:43;99737.88;;;5.92;87.23
65175;BME280;51761;42.126;24.752;2022-12-07T04:31:08;99732.00;;;6.00;86.90
65175;BME280;51761;42.126;24.752;2022-12-07T04:33:35;99754.94;;;5.97;87.48
65175;BME280;51761;42.126;24.752;2022-12-07T04:36:00;99754.13;;;5.93;87.70
65175;BME280;51761;42.126;24.752;2022-12-07T04:38:26;99749.75;;;5.92;87.58
65175;BME280;51761;42.126;24.752;2022-12-07T04:40:51;99748.56;;;5.90;87.43
65175;BME280;51761;42.126;24.752;2022-12-07T04:43:17;99724.34;;;5.80;87.16
65175;BME280;51761;42.126;24.752;2022-12-07T04:45:47;99737.47;;;5.83;87.02
65175;BME280;51761;42.126;24.752;2022-12-07T04:48:13;99737.84;;;5.88;87.13
65175;BME280;51761;42.126;24.752;2022-12-07T04:50:38;99725.88;;;5.70;87.30
65175;BME280;51761;42.126;24.752;2022-12-07T04:53:04;99746.09;;;5.78;87.35
65175;BME280;51761;42.126;24.752;2022-12-07T04:55:29;99747.69;;;5.75;87.63
65175;BME280;51761;42.126;24.752;2022-12-07T04:57:55;99749.56;;;5.64;87.87
65175;BME280;51761;42.126;24.752;2022-12-07T05:00:20;99754.38;;;5.71;87.77
65175;BME280;51761;42.126;24.752;2022-12-07T05:02:46;99753.59;;;5.74;87.50
65175;BME280;51761;42.126;24.752;2022-12-07T05:05:11;99754.81;;;5.76;87.66
65175;BME280;51761;42.126;24.752;2022-12-07T05:07:36;99764.38;;;5.82;87.55
65175;BME280;51761;42.126;24.752;2022-12-07T05:10:02;99745.69;;;5.76;87.46
65175;BME280;51761;42.126;24.752;2022-12-07T05:12:28;99733.78;;;5.68;87.57
65175;BME280;51761;42.126;24.752;2022-12-07T05:14:53;99742.06;;;5.65;87.53
65175;BME280;51761;42.126;24.752;2022-12-07T05:17:19;99753.59;;;5.70;88.01
65175;BME280;51761;42.126;24.752;2022-12-07T05:19:44;99748.38;;;5.65;88.20
65175;BME280;51761;42.126;24.752;2022-12-07T05:22:10;99740.47;;;5.64;87.47
65175;BME280;51761;42.126;24.752;2022-12-07T05:24:36;99755.91;;;5.61;87.99
65175;BME280;51761;42.126;24.752;2022-12-07T05:27:01;99761.00;;;5.52;89.00
65175;BME280;51761;42.126;24.752;2022-12-07T05:29:27;99747.81;;;5.35;89.21
65175;BME280;51761;42.126;24.752;2022-12-07T05:31:52;99762.22;;;5.55;88.95
65175;BME280;51761;42.126;24.752;2022-12-07T05:34:18;99765.78;;;5.62;88.87
65175;BME280;51761;42.126;24.752;2022-12-07T05:36:43;99773.75;;;5.71;88.93
65175;BME280;51761;42.126;24.752;2022-12-07T05:39:09;99773.78;;;5.74;88.81
65175;BME280;51761;42.126;24.752;2022-12-07T05:41:35;99765.97;;;5.90;88.68
65175;BME280;51761;42.126;24.752;2022-12-07T05:44:19;99746.09;;;5.74;88.42
65175;BME280;51761;42.126;24.752;2022-12-07T05:46:45;99743.38;;;5.81;88.75
65175;BME280;51761;42.126;24.752;2022-12-07T05:49:10;99771.59;;;6.08;88.51
65175;BME280;51761;42.126;24.752;2022-12-07T05:51:36;99755.38;;;6.06;87.97
65175;BME280;51761;42.126;24.752;2022-12-07T05:54:01;99765.31;;;6.14;88.06
65175;BME280;51761;42.126;24.752;2022-12-07T05:56:27;99758.16;;;6.13;88.19
65175;BME280;51761;42.126;24.752;2022-12-07T05:58:52;99763.75;;;6.20;87.69
65175;BME280;51761;42.126;24.752;2022-12-07T06:01:36;99784.78;;;6.28;87.38
65175;BME280;51761;42.126;24.752;2022-12-07T06:04:01;99781.66;;;6.40;86.80
65175;BME280;51761;42.126;24.752;2022-12-07T06:06:27;99766.53;;;6.23;87.38
65175;BME280;51761;42.126;24.752;2022-12-07T06:08:53;99778.06;;;6.36;87.39
65175;BME280;51761;42.126;24.752;2022-12-07T06:11:18;99781.28;;;6.41;87.16
65175;BME280;51761;42.126;24.752;2022-12-07T06:14:02;99771.72;;;6.35;87.68
65175;BME280;51761;42.126;24.752;2022-12-07T06:16:27;99772.56;;;6.50;87.25
65175;BME280;51761;42.126;24.752;2022-12-07T06:18:53;99776.16;;;6.61;87.55
65175;BME280;51761;42.126;24.752;2022-12-07T06:21:18;99779.69;;;6.40;87.46
65175;BME280;51761;42.126;24.752;2022-12-07T06:23:44;99776.13;;;6.47;87.14
65175;BME280;51761;42.126;24.752;2022-12-07T06:26:10;99778.94;;;6.54;86.98
65175;BME280;51761;42.126;24.752;2022-12-07T06:28:35;99760.25;;;6.37;87.78
65175;BME280;51761;42.126;24.752;2022-12-07T06:31:01;99775.31;;;6.50;86.78
65175;BME280;51761;42.126;24.752;2022-12-07T06:33:28;99766.25;;;6.53;86.37
65175;BME280;51761;42.126;24.752;2022-12-07T06:35:54;99775.78;;;6.73;85.57
65175;BME280;51761;42.126;24.752;2022-12-07T06:38:20;99765.84;;;6.61;85.49
65175;BME280;51761;42.126;24.752;2022-12-07T06:40:46;99798.84;;;6.91;84.54
65175;BME280;51761;42.126;24.752;2022-12-07T06:43:11;99787.72;;;6.94;84.20
65175;BME280;51761;42.126;24.752;2022-12-07T06:45:37;99765.91;;;6.86;84.25
65175;BME280;51761;42.126;24.752;2022-12-07T06:48:02;99795.28;;;7.18;83.91
65175;BME280;51761;42.126;24.752;2022-12-07T06:50:28;99765.53;;;7.26;82.93
65175;BME280;51761;42.126;24.752;2022-12-07T06:52:54;99764.72;;;7.29;82.87
65175;BME280;51761;42.126;24.752;2022-12-07T06:55:19;99787.69;;;7.85;81.05
65175;BME280;51761;42.126;24.752;2022-12-07T06:57:45;99769.34;;;8.08;79.49
65175;BME280;51761;42.126;24.752;2022-12-07T07:00:11;99780.38;;;8.40;77.94
65175;BME280;51761;42.126;24.752;2022-12-07T07:02:36;99760.88;;;8.43;77.88
65175;BME280;51761;42.126;24.752;2022-12-07T07:05:02;99773.03;;;8.74;76.68
65175;BME280;51761;42.126;24.752;2022-12-07T07:07:28;99749.13;;;8.80;76.05
65175;BME280;51761;42.126;24.752;2022-12-07T07:09:54;99768.81;;;9.06;74.89
65175;BME280;51761;42.126;24.752;2022-12-07T07:12:19;99753.81;;;8.93;76.28
65175;BME280;51761;42.126;24.752;2022-12-07T07:14:45;99778.31;;;9.16;76.21
65175;BME280;51761;42.126;24.752;2022-12-07T07:17:10;99786.13;;;9.35;75.07
65175;BME280;51761;42.126;24.752;2022-12-07T07:19:36;99778.69;;;9.21;75.12
65175;BME280;51761;42.126;24.752;2022-12-07T07:22:02;99775.94;;;9.14;74.85
65175;BME280;51761;42.126;24.752;2022-12-07T07:24:28;99790.25;;;9.16;75.19
65175;BME280;51761;42.126;24.752;2022-12-07T07:26:53;99774.31;;;9.17;75.53
65175;BME280;51761;42.126;24.752;2022-12-07T07:29:19;99779.06;;;9.20;74.85
65175;BME280;51761;42.126;24.752;2022-12-07T07:31:44;99781.47;;;9.18;75.85
65175;BME280;51761;42.126;24.752;2022-12-07T07:34:10;99747.53;;;8.82;76.88
65175;BME280;51761;42.126;24.752;2022-12-07T07:36:35;99756.22;;;8.91;75.92
65175;BME280;51761;42.126;24.752;2022-12-07T07:39:00;99783.03;;;9.26;74.74
65175;BME280;51761;42.126;24.752;2022-12-07T07:41:26;99780.19;;;9.29;74.54
65175;BME280;51761;42.126;24.752;2022-12-07T07:43:51;99774.75;;;9.12;75.13
65175;BME280;51761;42.126;24.752;2022-12-07T07:46:17;99787.78;;;9.25;75.09
65175;BME280;51761;42.126;24.752;2022-12-07T07:48:42;99787.34;;;9.30;74.97
65175;BME280;51761;42.126;24.752;2022-12-07T07:51:08;99784.91;;;9.39;74.76
65175;BME280;51761;42.126;24.752;2022-12-07T07:53:34;99790.22;;;9.67;74.83
65175;BME280;51761;42.126;24.752;2022-12-07T07:55:59;99795.00;;;9.66;74.11
65175;BME280;51761;42.126;24.752;2022-12-07T07:58:25;99796.69;;;9.97;74.54
65175;BME280;51761;42.126;24.752;2022-12-07T08:00:50;99803.00;;;10.05;74.36
65175;BME280;51761;42.126;24.752;2022-12-07T08:03:16;99795.63;;;10.25;73.43
65175;BME280;51761;42.126;24.752;2022-12-07T08:05:42;99799.19;;;10.59;72.74
65175;BME280;51761;42.126;24.752;2022-12-07T08:08:07;99784.91;;;11.09;71.17
65175;BME280;51761;42.126;24.752;2022-12-07T08:10:33;99790.88;;;11.61;68.31
65175;BME280;51761;42.126;24.752;2022-12-07T08:13:00;99777.59;;;12.07;66.05
65175;BME280;51761;42.126;24.752;2022-12-07T08:15:43;99788.44;;;12.83;63.66
65175;BME280;51761;42.126;24.752;2022-12-07T08:18:10;99763.72;;;12.97;61.55
65175;BME280;51761;42.126;24.752;2022-12-07T08:20:37;99779.88;;;13.57;59.57
65175;BME280;51761;42.126;24.752;2022-12-07T08:23:03;99796.44;;;14.28;56.92
65175;BME280;51761;42.126;24.752;2022-12-07T08:25:29;99802.97;;;14.53;55.81
65175;BME280;51761;42.126;24.752;2022-12-07T08:27:55;99782.56;;;14.37;56.23
65175;BME280;51761;42.126;24.752;2022-12-07T08:30:21;99792.72;;;14.19;56.42
65175;BME280;51761;42.126;24.752;2022-12-07T08:32:47;99796.59;;;14.37;56.97
65175;BME280;51761;42.126;24.752;2022-12-07T08:35:14;99772.06;;;14.66;56.10
65175;BME280;51761;42.126;24.752;2022-12-07T08:37:40;99775.94;;;15.09;54.29
65175;BME280;51761;42.126;24.752;2022-12-07T08:40:07;99778.78;;;15.47;54.01
65175;BME280;51761;42.126;24.752;2022-12-07T08:42:33;99788.41;;;15.71;53.49
65175;BME280;51761;42.126;24.752;2022-12-07T08:45:13;99766.50;;;15.41;54.04
65175;BME280;51761;42.126;24.752;2022-12-07T08:48:06;99772.34;;;15.59;53.56
65175;BME280;51761;42.126;24.752;2022-12-07T08:50:33;99777.88;;;15.62;54.55
65175;BME280;51761;42.126;24.752;2022-12-07T08:52:59;99774.56;;;15.76;53.72
65175;BME280;51761;42.126;24.752;2022-12-07T08:55:27;99772.69;;;15.94;52.82
65175;BME280;51761;42.126;24.752;2022-12-07T08:57:53;99768.00;;;16.13;54.18
65175;BME280;51761;42.126;24.752;2022-12-07T09:00:19;99769.28;;;16.33;52.12
65175;BME280;51761;42.126;24.752;2022-12-07T09:02:45;99771.34;;;16.54;52.51
65175;BME280;51761;42.126;24.752;2022-12-07T09:05:12;99765.84;;;16.51;51.23
65175;BME280;51761;42.126;24.752;2022-12-07T09:07:40;99765.22;;;16.77;50.64
65175;BME280;51761;42.126;24.752;2022-12-07T09:10:07;99721.81;;;15.89;51.89
65175;BME280;51761;42.126;24.752;2022-12-07T09:12:33;99726.88;;;16.15;51.64
65175;BME280;51761;42.126;24.752;2022-12-07T09:14:58;99744.06;;;15.75;54.61
65175;BME280;51761;42.126;24.752;2022-12-07T09:17:26;99713.09;;;15.96;52.79
65175;BME280;51761;42.126;24.752;2022-12-07T09:19:51;99722.84;;;16.38;52.94
65175;BME280;51761;42.126;24.752;2022-12-07T09:22:17;99716.25;;;15.98;51.93
65175;BME280;51761;42.126;24.752;2022-12-07T09:24:43;99719.78;;;16.11;52.81
65175;BME280;51761;42.126;24.752;2022-12-07T09:27:10;99714.56;;;16.22;51.63
65175;BME280;51761;42.126;24.752;2022-12-07T09:29:36;99668.34;;;16.41;52.27
65175;BME280;51761;42.126;24.752;2022-12-07T09:32:02;99714.88;;;16.67;51.04
65175;BME280;51761;42.126;24.752;2022-12-07T09:34:30;99701.19;;;16.87;50.00
65175;BME280;51761;42.126;24.752;2022-12-07T09:36:57;99708.16;;;16.73;50.14
65175;BME280;51761;42.126;24.752;2022-12-07T09:39:22;99699.59;;;16.77;49.16
65175;BME280;51761;42.126;24.752;2022-12-07T09:41:48;99695.78;;;16.71;50.17
65175;BME280;51761;42.126;24.752;2022-12-07T09:44:20;99684.06;;;16.81;48.66
65175;BME280;51761;42.126;24.752;2022-12-07T09:46:47;99686.28;;;16.86;48.93
65175;BME280;51761;42.126;24.752;2022-12-07T09:49:17;99689.78;;;16.90;49.36
65175;BME280;51761;42.126;24.752;2022-12-07T09:51:44;99683.41;;;17.08;48.15
65175;BME280;51761;42.126;24.752;2022-12-07T09:54:14;99660.31;;;17.40;47.56
65175;BME280;51761;42.126;24.752;2022-12-07T09:56:41;99680.25;;;17.45;48.16
65175;BME280;51761;42.126;24.752;2022-12-07T09:59:13;99680.59;;;17.17;47.95
65175;BME280;51761;42.126;24.752;2022-12-07T10:01:41;99658.69;;;17.30;47.76
65175;BME280;51761;42.126;24.752;2022-12-07T10:04:14;99662.19;;;17.34;47.28
65175;BME280;51761;42.126;24.752;2022-12-07T10:06:41;99679.78;;;17.55;48.54
65175;BME280;51761;42.126;24.752;2022-12-07T10:09:12;99679.06;;;17.25;48.47
65175;BME280;51761;42.126;24.752;2022-12-07T10:12:09;99684.06;;;17.21;49.40
65175;BME280;51761;42.126;24.752;2022-12-07T10:14:39;99682.28;;;17.45;48.08
65175;BME280;51761;42.126;24.752;2022-12-07T10:17:37;99676.84;;;17.11;48.24
65175;BME280;51761;42.126;24.752;2022-12-07T10:22:55;99659.81;;;16.32;50.82
65175;BME280;51761;42.126;24.752;2022-12-07T10:25:24;99601.53;;;16.20;50.59
65175;BME280;51761;42.126;24.752;2022-12-07T10:28:27;99648.41;;;16.87;50.33
65175;BME280;51761;42.126;24.752;2022-12-07T10:31:03;99652.50;;;17.61;50.25
65175;BME280;51761;42.126;24.752;2022-12-07T10:33:58;99634.78;;;17.79;47.31
65175;BME280;51761;42.126;24.752;2022-12-07T10:36:38;99619.69;;;17.55;47.47
65175;BME280;51761;42.126;24.752;2022-12-07T10:39:15;99640.25;;;17.73;47.38
65175;BME280;51761;42.126;24.752;2022-12-07T10:41:59;99640.88;;;17.77;47.57
65175;BME280;51761;42.126;24.752;2022-12-07T10:44:29;99614.19;;;17.52;47.33
65175;BME280;51761;42.126;24.752;2022-12-07T10:47:18;99651.56;;;17.64;46.97
65175;BME280;51761;42.126;24.752;2022-12-07T11:15:01;99622.91;;;17.27;47.95
65175;BME280;51761;42.126;24.752;2022-12-07T11:17:36;99623.84;;;17.15;48.42
65175;BME280;51761;42.126;24.752;2022-12-07T11:29:37;99613.44;;;16.24;51.48
65175;BME280;51761;42.126;24.752;2022-12-07T11:35:11;99606.94;;;15.50;53.20
65175;BME280;51761;42.126;24.752;2022-12-07T11:37:39;99598.19;;;15.48;53.53
65175;BME280;51761;42.126;24.752;2022-12-07T11:43:04;99581.41;;;14.98;55.10
65175;BME280;51761;42.126;24.752;2022-12-07T11:45:35;99599.03;;;14.52;56.55
65175;BME280;51761;42.126;24.752;2022-12-07T11:48:06;99591.16;;;14.47;56.48
65175;BME280;51761;42.126;24.752;2022-12-07T11:56:25;99575.81;;;13.99;59.06
65175;BME280;51761;42.126;24.752;2022-12-07T11:59:00;99569.72;;;13.88;58.87
65175;BME280;51761;42.126;24.752;2022-12-07T12:06:42;99570.69;;;13.69;60.32
65175;BME280;51761;42.126;24.752;2022-12-07T12:09:25;99551.94;;;13.66;60.01
65175;BME280;51761;42.126;24.752;2022-12-07T12:23:27;99562.06;;;13.76;60.57
65175;BME280;51761;42.126;24.752;2022-12-07T12:26:02;99536.19;;;13.56;61.13
65175;BME280;51761;42.126;24.752;2022-12-07T12:33:38;99529.31;;;13.44;60.90
65175;BME280;51761;42.126;24.752;2022-12-07T13:04:56;99531.09;;;13.10;62.98
65175;BME280;51761;42.126;24.752;2022-12-07T13:07:58;99517.34;;;13.28;62.70
65175;BME280;51761;42.126;24.752;2022-12-07T13:15:52;99518.94;;;13.29;63.55
65175;BME280;51761;42.126;24.752;2022-12-07T13:26:36;99506.91;;;13.00;63.71
65175;BME280;51761;42.126;24.752;2022-12-07T13:29:19;99523.38;;;13.14;63.63
65175;BME280;51761;42.126;24.752;2022-12-07T13:31:54;99493.81;;;12.81;64.49
65175;BME280;51761;42.126;24.752;2022-12-07T13:37:02;99516.25;;;12.65;64.82
65175;BME280;51761;42.126;24.752;2022-12-07T13:39:32;99514.81;;;12.73;64.51
65175;BME280;51761;42.126;24.752;2022-12-07T13:41:59;99509.75;;;12.68;64.89
65175;BME280;51761;42.126;24.752;2022-12-07T13:44:27;99524.31;;;12.63;65.33
65175;BME280;51761;42.126;24.752;2022-12-07T13:49:37;99498.31;;;12.31;65.24
65175;BME280;51761;42.126;24.752;2022-12-07T13:52:20;99477.03;;;12.17;65.31
65175;BME280;51761;42.126;24.752;2022-12-07T13:54:49;99515.91;;;12.31;66.03
65175;BME280;51761;42.126;24.752;2022-12-07T13:57:18;99496.28;;;12.15;65.99
65175;BME280;51761;42.126;24.752;2022-12-07T13:59:44;99513.19;;;12.28;66.08
65175;BME280;51761;42.126;24.752;2022-12-07T14:02:28;99521.94;;;12.46;65.90
65175;BME280;51761;42.126;24.752;2022-12-07T14:05:14;99495.84;;;12.33;66.08
65175;BME280;51761;42.126;24.752;2022-12-07T14:08:03;99530.97;;;12.37;67.11
65175;BME280;51761;42.126;24.752;2022-12-07T14:10:31;99506.19;;;12.20;66.79
65175;BME280;51761;42.126;24.752;2022-12-07T14:12:59;99520.88;;;12.24;67.95
65175;BME280;51761;42.126;24.752;2022-12-07T14:15:34;99529.56;;;12.29;66.84
65175;BME280;51761;42.126;24.752;2022-12-07T14:18:02;99510.38;;;12.12;66.90
65175;BME280;51761;42.126;24.752;2022-12-07T14:22:55;99529.38;;;12.20;67.10
65175;BME280;51761;42.126;24.752;2022-12-07T14:25:23;99507.72;;;12.05;67.44
65175;BME280;51761;42.126;24.752;2022-12-07T14:27:50;99508.19;;;12.03;67.64
65175;BME280;51761;42.126;24.752;2022-12-07T14:30:17;99529.53;;;12.13;67.49
65175;BME280;51761;42.126;24.752;2022-12-07T14:32:43;99504.13;;;11.88;67.82
65175;BME280;51761;42.126;24.752;2022-12-07T14:35:15;99490.28;;;11.81;68.20
65175;BME280;51761;42.126;24.752;2022-12-07T14:37:43;99513.06;;;11.99;68.39
65175;BME280;51761;42.126;24.752;2022-12-07T14:40:22;99468.75;;;11.62;68.06
65175;BME280;51761;42.126;24.752;2022-12-07T14:43:10;99523.56;;;11.95;68.46
65175;BME280;51761;42.126;24.752;2022-12-07T14:45:37;99460.50;;;11.55;68.51
65175;BME280;51761;42.126;24.752;2022-12-07T14:48:05;99511.50;;;11.98;68.41
65175;BME280;51761;42.126;24.752;2022-12-07T14:50:36;99510.94;;;11.87;68.92
65175;BME280;51761;42.126;24.752;2022-12-07T14:53:10;99494.91;;;11.72;69.31
65175;BME280;51761;42.126;24.752;2022-12-07T14:55:37;99520.50;;;11.90;68.98
65175;BME280;51761;42.126;24.752;2022-12-07T14:58:02;99520.66;;;11.83;69.17
65175;BME280;51761;42.126;24.752;2022-12-07T15:00:28;99523.22;;;11.74;69.53
65175;BME280;51761;42.126;24.752;2022-12-07T15:02:54;99508.34;;;11.61;69.71
65175;BME280;51761;42.126;24.752;2022-12-07T15:05:20;99526.19;;;11.67;70.43
65175;BME280;51761;42.126;24.752;2022-12-07T15:07:46;99519.47;;;11.64;70.03
65175;BME280;51761;42.126;24.752;2022-12-07T15:10:26;99520.69;;;11.63;70.24
65175;BME280;51761;42.126;24.752;2022-12-07T15:12:57;99514.47;;;11.56;70.40
65175;BME280;51761;42.126;24.752;2022-12-07T15:15:47;99498.03;;;11.38;70.37
65175;BME280;51761;42.126;24.752;2022-12-07T15:18:13;99523.69;;;11.53;70.73
65175;BME280;51761;42.126;24.752;2022-12-07T15:20:39;99505.03;;;11.46;70.67
65175;BME280;51761;42.126;24.752;2022-12-07T15:23:04;99533.34;;;11.48;71.15
65175;BME280;51761;42.126;24.752;2022-12-07T15:25:30;99537.53;;;11.40;71.39
65175;BME280;51761;42.126;24.752;2022-12-07T15:27:55;99537.72;;;11.30;71.71
65175;BME280;51761;42.126;24.752;2022-12-07T15:30:21;99541.75;;;11.29;74.27
65175;BME280;51761;42.126;24.752;2022-12-07T15:32:51;99482.53;;;10.95;72.57
65175;BME280;51761;42.126;24.752;2022-12-07T15:35:16;99548.19;;;11.26;72.68
65175;BME280;51761;42.126;24.752;2022-12-07T15:37:42;99556.66;;;11.22;72.93
65175;BME280;51761;42.126;24.752;2022-12-07T15:40:08;99533.06;;;11.04;73.17